Perry, Louisiana
Current Conditions -  °F | °C
As of 2:35 PM on Thursday 20 Nov 2014 (Local Time) from KIYA Reporting Station
Clear Clear  
Wind Chill: 68°   Ceiling: Unl
Heat Index: 68°   Visibility: 10mi
Dew Point: 49°   Wind: 12mph
Humidity: 52%   Direction: 140°SE
Pressure: 30.18"   Gusts: NA
Location:  29.95°N, 92.16°W
Report Text: KIYA 202035Z AUTO 14010KT 10SM CLR 20/10 A3018 RMK AO2 T01980097
Loading
Personal Weather Stations






























Interactive Weather Map New forecast layout! Learn more

10-Day Weather Forecast

Advertisements
Track Severe Weather on mobile